Hovedside
METAR-TAF:

METAR-TAF

Lufthavner :

Harbin, Kina

Harbin Taiping internasjonale lufthavn

breddegrad: 45-45N, lengdegrad: 126-46E, høyde over havet: 143 m

Gjeldene værobservasjon

Denne rapporten ble laget for 34 minutter siden, klokken 19:00 UTC
Vind 6 kt fra Vest
Temperatur -18°C
Luftfuktighet 59%
Trykk 1020 hPa
Sikt 10 km eller mer
ingen skyer under 1500 m og ingen bygeskyer

METAR: ZYHB 191900Z 28003MPS CAVOK M18/M24 Q1020 NOSIG

Tid: 03:34 (19:34 UTC)

Varsel

Denne rapporten ble laget for 4 timer og 32 minutter siden, klokken 15:02 UTC
Varsel gyldig fra 19. klokken 18 UTC til 20. klokken 18 UTC
Vind 8 kt fra Vest
Sikt: 6000 m
Spredte skyer i en høyde av 3000 ft

TAF: ZYHB 191502Z 1918/2018 27004MPS 6000 SCT030 TXM12/06Z TNM23/21Z

Værobservasjoner og værvarsel for over 4000 flyplasser (METAR- og TAF-rapporter).

Tilgjengelige stasjoner er representert av de røde og gule prikkene på kartet.

Hold musepekeren over prikken for å se navnet på stasjonen.

Klikk så for å se værobservasjoner og -varsler.

For å forandre kartet kan du klikke på den grønne knappen med svart kryss for å zoome inn, på den grønne knappen med strek for å zoome ut, eller på de grønne pilene for å se tilstøtende kart.


METAR-TAF: